createdAt,value
2023-05-07T00:01:12.908Z,100.00
2023-05-07T00:04:00.627Z,100.00
2023-05-07T00:06:48.155Z,100.00
2023-05-07T00:09:35.713Z,100.00
2023-05-07T00:12:23.389Z,100.00
2023-05-07T00:15:11.555Z,100.00
2023-05-07T00:18:00.760Z,100.00
2023-05-07T00:20:48.472Z,100.00
2023-05-07T00:23:36.021Z,100.00
2023-05-07T00:26:23.945Z,100.00
2023-05-07T00:29:11.419Z,100.00
2023-05-07T00:31:58.923Z,100.00
2023-05-07T00:34:46.393Z,100.00
2023-05-07T00:37:33.914Z,100.00
2023-05-07T00:40:21.384Z,100.00
2023-05-07T00:43:09.081Z,100.00
2023-05-07T00:45:57.215Z,100.00
2023-05-07T00:48:44.978Z,100.00
2023-05-07T00:51:32.473Z,100.00
2023-05-07T00:54:20.906Z,100.00
2023-05-07T00:57:08.653Z,100.00
2023-05-07T00:59:56.831Z,100.00
2023-05-07T01:02:45.031Z,100.00
2023-05-07T01:05:33.192Z,100.00
2023-05-07T01:08:22.070Z,100.00
2023-05-07T01:11:10.463Z,100.00
2023-05-07T01:14:00.842Z,100.00
2023-05-07T01:16:49.878Z,100.00
2023-05-07T01:19:37.902Z,100.00
2023-05-07T01:22:37.985Z,100.00
2023-05-07T01:25:25.949Z,100.00
2023-05-07T01:28:13.446Z,100.00
2023-05-07T01:31:04.835Z,100.00
2023-05-07T01:33:54.411Z,100.00
2023-05-07T01:36:44.708Z,100.00
2023-05-07T01:39:33.391Z,100.00
2023-05-07T01:42:21.424Z,100.00
2023-05-07T01:45:09.539Z,100.00
2023-05-07T01:47:58.913Z,100.00
2023-05-07T01:50:46.836Z,100.00
2023-05-07T01:53:39.056Z,100.00
2023-05-07T01:56:27.050Z,100.00
2023-05-07T01:59:14.999Z,100.00
2023-05-07T02:02:02.492Z,100.00
2023-05-07T02:04:49.959Z,100.00
2023-05-07T02:07:37.613Z,100.00
2023-05-07T02:10:25.169Z,100.00
2023-05-07T02:13:12.713Z,100.00
2023-05-07T02:16:00.353Z,100.00
2023-05-07T02:18:47.888Z,100.00
2023-05-07T02:21:35.352Z,100.00
2023-05-07T02:24:23.096Z,100.00
2023-05-07T02:27:10.580Z,100.00
2023-05-07T02:29:58.341Z,100.00
2023-05-07T02:32:46.018Z,100.00
2023-05-07T02:35:33.611Z,100.00
2023-05-07T02:38:21.187Z,100.00
2023-05-07T02:41:08.762Z,100.00
2023-05-07T02:43:56.255Z,100.00
2023-05-07T02:46:43.712Z,100.00
2023-05-07T02:49:31.140Z,100.00
2023-05-07T02:52:18.588Z,100.00
2023-05-07T02:55:06.931Z,100.00
2023-05-07T02:57:54.419Z,100.00
2023-05-07T03:00:41.858Z,100.00
2023-05-07T03:03:29.334Z,100.00
2023-05-07T03:06:16.807Z,100.00
2023-05-07T03:09:04.424Z,100.00
2023-05-07T03:11:51.887Z,100.00
2023-05-07T03:14:39.369Z,100.00
2023-05-07T03:17:26.970Z,100.00
2023-05-07T03:20:15.068Z,100.00
2023-05-07T03:23:02.672Z,100.00
2023-05-07T03:25:51.006Z,100.00
2023-05-07T03:28:39.021Z,100.00
2023-05-07T03:31:26.530Z,100.00
2023-05-07T03:34:14.001Z,100.00
2023-05-07T03:37:01.989Z,100.00
2023-05-07T03:39:49.405Z,100.00
2023-05-07T03:42:37.008Z,100.00
2023-05-07T03:45:24.430Z,100.00
2023-05-07T03:48:11.935Z,100.00
2023-05-07T03:51:00.229Z,100.00
2023-05-07T03:53:47.731Z,100.00
2023-05-07T03:56:35.236Z,100.00
2023-05-07T03:59:23.871Z,100.00
2023-05-07T04:02:11.371Z,100.00
2023-05-07T04:04:58.811Z,100.00
2023-05-07T04:07:46.219Z,100.00
2023-05-07T04:10:33.715Z,100.00
2023-05-07T04:13:21.168Z,100.00
2023-05-07T04:16:09.433Z,100.00
2023-05-07T04:18:57.178Z,100.00
2023-05-07T04:21:44.920Z,100.00
2023-05-07T04:24:35.350Z,100.00
2023-05-07T04:27:23.083Z,100.00
2023-05-07T04:30:11.275Z,100.00
2023-05-07T04:32:59.162Z,100.00
2023-05-07T04:35:47.518Z,100.00
2023-05-07T04:38:35.063Z,100.00
2023-05-07T04:41:22.521Z,100.00
2023-05-07T04:44:10.697Z,100.00
2023-05-07T04:46:59.091Z,100.00
2023-05-07T04:49:46.556Z,100.00
2023-05-07T04:52:34.036Z,100.00
2023-05-07T04:55:21.535Z,100.00
2023-05-07T04:58:09.237Z,100.00
2023-05-07T05:00:57.827Z,100.00
2023-05-07T05:03:45.309Z,100.00
2023-05-07T05:06:32.760Z,100.00
2023-05-07T05:09:20.206Z,100.00
2023-05-07T05:12:08.704Z,100.00
2023-05-07T05:14:56.254Z,100.00
2023-05-07T05:17:43.811Z,100.00
2023-05-07T05:20:31.539Z,100.00
2023-05-07T05:23:19.137Z,100.00
2023-05-07T05:26:06.609Z,100.00
2023-05-07T05:28:57.305Z,100.00
2023-05-07T05:31:44.807Z,100.00
2023-05-07T05:34:32.376Z,100.00
2023-05-07T05:37:19.936Z,100.00
2023-05-07T05:40:08.367Z,100.00
2023-05-07T05:42:56.126Z,100.00
2023-05-07T05:45:43.650Z,100.00
2023-05-07T05:48:31.475Z,100.00
2023-05-07T05:51:18.990Z,100.00
2023-05-07T05:54:06.637Z,100.00
2023-05-07T05:56:54.165Z,100.00
2023-05-07T05:59:41.630Z,100.00
2023-05-07T06:02:29.170Z,100.00
2023-05-07T06:05:16.886Z,100.00
2023-05-07T06:08:04.803Z,100.00
2023-05-07T06:10:52.365Z,100.00
2023-05-07T06:13:39.863Z,100.00
2023-05-07T06:16:27.550Z,100.00
2023-05-07T06:19:15.104Z,100.00
2023-05-07T06:22:03.809Z,100.00
2023-05-07T06:24:51.585Z,100.00
2023-05-07T06:27:40.919Z,100.00
2023-05-07T06:30:28.599Z,100.00
2023-05-07T06:33:16.094Z,100.00
2023-05-07T06:36:59.986Z,99.92
2023-05-07T06:39:47.421Z,100.00
2023-05-07T06:42:35.070Z,100.00
2023-05-07T06:45:22.527Z,99.92
2023-05-07T06:48:09.976Z,99.64
2023-05-07T06:50:58.866Z,99.74
2023-05-07T06:53:47.352Z,95.47
2023-05-07T06:56:35.985Z,92.96
2023-05-07T06:59:23.417Z,91.09
2023-05-07T07:02:10.893Z,91.50
2023-05-07T07:04:58.356Z,90.32
2023-05-07T07:07:46.370Z,89.79
2023-05-07T07:10:34.099Z,89.39
2023-05-07T07:13:21.586Z,90.14
2023-05-07T07:16:09.211Z,91.48
2023-05-07T07:18:56.739Z,91.95
2023-05-07T07:21:44.457Z,92.97
2023-05-07T07:24:31.879Z,92.13
2023-05-07T07:27:19.388Z,91.82
2023-05-07T07:30:08.083Z,92.15
2023-05-07T07:32:56.564Z,92.56
2023-05-07T07:35:44.017Z,91.46
2023-05-07T07:38:31.658Z,91.00
2023-05-07T07:41:19.099Z,89.73
2023-05-07T07:44:08.822Z,88.45
2023-05-07T07:46:56.285Z,85.27
2023-05-07T07:49:43.838Z,85.28
2023-05-07T07:52:31.329Z,82.92
2023-05-07T07:55:24.256Z,80.26
2023-05-07T07:58:11.775Z,80.20
2023-05-07T08:00:59.566Z,79.50
2023-05-07T08:03:47.101Z,80.50
2023-05-07T08:06:34.665Z,81.98
2023-05-07T08:09:22.188Z,82.89
2023-05-07T08:12:09.824Z,83.10
2023-05-07T08:14:57.423Z,81.12
2023-05-07T08:17:45.445Z,80.25
2023-05-07T08:20:33.417Z,81.29
2023-05-07T08:23:20.950Z,80.96
2023-05-07T08:26:09.885Z,80.83
2023-05-07T08:28:57.396Z,82.13
2023-05-07T08:31:44.854Z,82.84
2023-05-07T08:34:32.315Z,81.67
2023-05-07T08:37:19.808Z,82.05
2023-05-07T08:40:11.406Z,81.92
2023-05-07T08:43:02.203Z,81.46
2023-05-07T08:45:51.290Z,80.71
2023-05-07T08:48:39.010Z,81.57
2023-05-07T08:51:26.981Z,82.25
2023-05-07T08:54:18.075Z,82.32
2023-05-07T08:57:05.701Z,81.42
2023-05-07T08:59:53.120Z,82.16
2023-05-07T09:02:40.950Z,82.47
2023-05-07T09:05:28.576Z,81.26
2023-05-07T09:08:17.611Z,81.14
2023-05-07T09:11:29.724Z,82.19
2023-05-07T09:14:17.297Z,82.04
2023-05-07T09:17:04.837Z,82.38
2023-05-07T09:19:52.351Z,81.83
2023-05-07T09:22:40.204Z,82.68
2023-05-07T09:25:33.159Z,81.93
2023-05-07T09:28:20.780Z,81.48
2023-05-07T09:31:09.453Z,82.66
2023-05-07T09:33:57.543Z,82.46
2023-05-07T09:36:45.048Z,82.35
2023-05-07T09:39:48.703Z,81.70
2023-05-07T09:42:36.336Z,78.92
2023-05-07T09:45:30.727Z,79.33
2023-05-07T09:48:19.957Z,76.68
2023-05-07T09:51:24.085Z,76.18
2023-05-07T09:54:12.425Z,77.16
2023-05-07T09:57:00.834Z,75.72
2023-05-07T09:59:49.180Z,76.62
2023-05-07T10:02:38.481Z,75.16
2023-05-07T10:05:27.123Z,74.03
2023-05-07T10:08:18.175Z,74.68
2023-05-07T10:11:07.351Z,74.41
2023-05-07T10:13:54.969Z,72.70
2023-05-07T10:16:42.891Z,74.16
2023-05-07T10:19:31.364Z,73.14
2023-05-07T10:22:20.173Z,72.47
2023-05-07T10:25:27.039Z,70.74
2023-05-07T10:28:14.941Z,70.27
2023-05-07T10:31:23.974Z,70.40
2023-05-07T10:34:15.377Z,71.91
2023-05-07T10:37:03.872Z,70.43
2023-05-07T10:39:51.488Z,71.69
2023-05-07T10:42:38.968Z,71.35
2023-05-07T10:45:27.290Z,69.50
2023-05-07T10:51:23.164Z,67.28
2023-05-07T10:54:14.022Z,67.85
2023-05-07T10:57:33.558Z,67.64
2023-05-07T11:00:38.917Z,68.57
2023-05-07T11:03:28.619Z,67.72
2023-05-07T11:06:17.839Z,66.39
2023-05-07T11:09:05.350Z,68.30
2023-05-07T11:11:52.849Z,66.19
2023-05-07T11:14:43.697Z,65.91
2023-05-07T11:17:35.715Z,65.77
2023-05-07T11:20:56.772Z,65.35
2023-05-07T11:23:50.096Z,64.81
2023-05-07T11:26:51.457Z,63.44
2023-05-07T11:29:39.247Z,62.04
2023-05-07T11:32:32.730Z,63.15
2023-05-07T11:35:25.638Z,61.30
2023-05-07T11:38:14.508Z,63.25
2023-05-07T11:41:03.109Z,64.67
2023-05-07T11:43:58.626Z,62.90
2023-05-07T11:46:46.675Z,62.58
2023-05-07T11:49:35.696Z,60.56
2023-05-07T11:52:25.159Z,60.67
2023-05-07T11:55:12.869Z,60.25
2023-05-07T11:58:00.467Z,59.22
2023-05-07T12:00:55.419Z,59.63
2023-05-07T12:03:45.415Z,59.56
2023-05-07T12:06:32.907Z,60.00
2023-05-07T12:09:20.568Z,58.66
2023-05-07T12:12:08.431Z,56.76
2023-05-07T12:14:55.883Z,57.66
2023-05-07T12:17:44.016Z,58.36
2023-05-07T12:20:31.568Z,59.06
2023-05-07T12:23:19.605Z,60.14
2023-05-07T12:26:07.824Z,58.50
2023-05-07T12:28:55.474Z,59.69
2023-05-07T12:31:43.868Z,57.84
2023-05-07T12:34:32.838Z,57.04
2023-05-07T12:37:27.079Z,58.30
2023-05-07T12:40:15.878Z,57.13
2023-05-07T12:43:03.418Z,57.84
2023-05-07T12:45:52.811Z,57.19
2023-05-07T12:48:45.125Z,55.10
2023-05-07T12:51:32.630Z,55.88
2023-05-07T12:54:34.239Z,56.65
2023-05-07T12:57:22.410Z,55.09
2023-05-07T13:00:10.942Z,53.29
2023-05-07T13:03:00.478Z,51.71
2023-05-07T13:05:47.997Z,53.33
2023-05-07T13:08:38.964Z,51.75
2023-05-07T13:11:26.406Z,51.76
2023-05-07T13:14:14.186Z,51.42
2023-05-07T13:17:01.642Z,51.47
2023-05-07T13:19:49.235Z,51.78
2023-05-07T13:22:37.058Z,51.86
2023-05-07T13:25:24.623Z,50.53
2023-05-07T13:28:12.096Z,50.51
2023-05-07T13:30:59.579Z,51.56
2023-05-07T13:33:46.995Z,52.08
2023-05-07T13:36:38.407Z,52.25
2023-05-07T13:39:26.044Z,51.62
2023-05-07T13:42:13.493Z,52.22
2023-05-07T13:45:01.606Z,52.69
2023-05-07T13:47:50.876Z,53.06
2023-05-07T13:50:38.340Z,53.27
2023-05-07T13:53:25.984Z,52.92
2023-05-07T13:56:13.392Z,51.95
2023-05-07T13:59:01.255Z,53.84
2023-05-07T14:01:49.342Z,53.80
2023-05-07T14:04:36.812Z,53.11
2023-05-07T14:07:24.261Z,50.53
2023-05-07T14:10:12.749Z,50.64
2023-05-07T14:13:00.496Z,49.70
2023-05-07T14:15:49.849Z,51.35
2023-05-07T14:18:38.368Z,51.08
2023-05-07T14:21:25.876Z,50.75
2023-05-07T14:24:13.530Z,48.87
2023-05-07T14:27:01.194Z,49.02
2023-05-07T14:29:52.217Z,49.99
2023-05-07T14:32:39.654Z,50.97
2023-05-07T14:35:27.142Z,50.83
2023-05-07T14:38:14.592Z,49.79
2023-05-07T14:41:02.110Z,49.92
2023-05-07T14:43:51.307Z,50.67
2023-05-07T14:46:38.758Z,50.73
2023-05-07T14:49:26.228Z,51.12
2023-05-07T14:52:13.686Z,51.59
2023-05-07T14:55:01.614Z,51.04
2023-05-07T14:57:49.088Z,50.56
2023-05-07T15:00:36.589Z,51.06
2023-05-07T15:03:24.545Z,52.08
2023-05-07T15:06:12.121Z,53.11
2023-05-07T15:08:59.634Z,53.37
2023-05-07T15:11:47.110Z,53.53
2023-05-07T15:14:34.702Z,53.30
2023-05-07T15:17:22.402Z,53.06
2023-05-07T15:20:10.488Z,51.14
2023-05-07T15:22:58.161Z,50.63
2023-05-07T15:25:46.841Z,49.38
2023-05-07T15:28:35.992Z,49.82
2023-05-07T15:31:23.694Z,49.76
2023-05-07T15:34:11.389Z,48.65
2023-05-07T15:36:58.818Z,48.76
2023-05-07T15:39:46.286Z,47.62
2023-05-07T15:42:34.852Z,49.32
2023-05-07T15:45:22.503Z,48.54
2023-05-07T15:48:11.752Z,48.56
2023-05-07T15:51:00.349Z,49.55
2023-05-07T15:53:47.973Z,49.45
2023-05-07T15:56:35.523Z,50.06
2023-05-07T15:59:23.065Z,50.93
2023-05-07T16:02:10.720Z,52.07
2023-05-07T16:04:58.187Z,52.41
2023-05-07T16:07:45.620Z,52.15
2023-05-07T16:10:33.099Z,52.42
2023-05-07T16:13:21.394Z,52.96
2023-05-07T16:16:09.011Z,52.46
2023-05-07T16:18:57.275Z,51.14
2023-05-07T16:21:44.870Z,51.57
2023-05-07T16:24:33.014Z,52.02
2023-05-07T16:27:20.409Z,52.48
2023-05-07T16:30:08.949Z,52.83
2023-05-07T16:32:56.625Z,51.77
2023-05-07T16:35:47.946Z,50.42
2023-05-07T16:38:35.425Z,51.21
2023-05-07T16:41:23.401Z,51.63
2023-05-07T16:44:11.133Z,52.11
2023-05-07T16:46:58.594Z,52.23
2023-05-07T16:49:46.090Z,52.77
2023-05-07T16:52:33.626Z,52.58
2023-05-07T16:55:21.227Z,52.41
2023-05-07T16:58:11.556Z,52.74
2023-05-07T17:00:59.105Z,52.72
2023-05-07T17:03:46.749Z,52.89
2023-05-07T17:06:34.296Z,53.20
2023-05-07T17:09:21.739Z,53.15
2023-05-07T17:12:09.237Z,53.67
2023-05-07T17:14:56.773Z,53.46
2023-05-07T17:17:44.420Z,53.67
2023-05-07T17:20:31.953Z,54.48
2023-05-07T17:23:19.432Z,54.76
2023-05-07T17:26:15.711Z,55.19
2023-05-07T17:29:04.077Z,55.51
2023-05-07T17:31:51.995Z,55.61
2023-05-07T17:34:39.403Z,55.64
2023-05-07T17:37:27.488Z,55.97
2023-05-07T17:40:15.714Z,56.50
2023-05-07T17:43:03.259Z,56.28
2023-05-07T17:45:51.350Z,56.22
2023-05-07T17:48:38.904Z,56.08
2023-05-07T17:51:26.608Z,55.11
2023-05-07T17:54:14.073Z,55.66
2023-05-07T17:57:01.659Z,56.36
2023-05-07T17:59:49.388Z,56.49
2023-05-07T18:02:37.209Z,56.88
2023-05-07T18:05:31.461Z,57.43
2023-05-07T18:08:18.930Z,57.37
2023-05-07T18:11:06.670Z,58.04
2023-05-07T18:13:54.137Z,58.35
2023-05-07T18:16:41.838Z,58.32
2023-05-07T18:19:29.391Z,58.95
2023-05-07T18:22:16.966Z,59.16
2023-05-07T18:25:05.261Z,59.39
2023-05-07T18:27:52.742Z,59.73
2023-05-07T18:30:40.392Z,60.03
2023-05-07T18:33:27.855Z,60.18
2023-05-07T18:36:15.286Z,59.89
2023-05-07T18:39:03.889Z,59.97
2023-05-07T18:41:51.342Z,60.55
2023-05-07T18:44:39.184Z,61.25
2023-05-07T18:47:26.621Z,61.38
2023-05-07T18:50:14.631Z,61.63
2023-05-07T18:53:02.501Z,61.61
2023-05-07T18:55:53.885Z,61.82
2023-05-07T18:58:41.289Z,62.33
2023-05-07T19:01:28.823Z,62.66
2023-05-07T19:04:17.784Z,63.06
2023-05-07T19:07:05.336Z,63.23
2023-05-07T19:10:04.118Z,63.59
2023-05-07T19:12:55.854Z,63.72
2023-05-07T19:15:43.501Z,64.01
2023-05-07T19:18:32.228Z,64.44
2023-05-07T19:21:19.734Z,64.48
2023-05-07T19:24:07.973Z,64.85
2023-05-07T19:26:55.390Z,65.14
2023-05-07T19:29:43.990Z,65.28
2023-05-07T19:32:31.633Z,65.24
2023-05-07T19:35:19.442Z,65.66
2023-05-07T19:38:07.746Z,65.82
2023-05-07T19:40:56.180Z,65.99
2023-05-07T19:43:43.625Z,66.28
2023-05-07T19:46:31.151Z,66.88
2023-05-07T19:49:18.834Z,67.33
2023-05-07T19:52:06.413Z,67.57
2023-05-07T19:54:54.229Z,67.83
2023-05-07T19:57:41.701Z,68.67
2023-05-07T20:00:32.563Z,69.13
2023-05-07T20:03:20.112Z,69.18
2023-05-07T20:06:07.602Z,69.91
2023-05-07T20:08:55.092Z,69.80
2023-05-07T20:11:42.573Z,70.27
2023-05-07T20:14:30.109Z,70.66
2023-05-07T20:17:17.657Z,70.66
2023-05-07T20:20:05.908Z,70.88
2023-05-07T20:22:53.311Z,70.76
2023-05-07T20:25:42.376Z,70.88
2023-05-07T20:28:30.289Z,70.91
2023-05-07T20:31:18.584Z,71.09
2023-05-07T20:34:06.069Z,71.16
2023-05-07T20:36:53.871Z,71.58
2023-05-07T20:39:42.235Z,71.81
2023-05-07T20:42:30.093Z,72.02
2023-05-07T20:45:17.675Z,72.22
2023-05-07T20:48:05.416Z,72.81
2023-05-07T20:50:52.888Z,72.82
2023-05-07T20:53:41.153Z,73.60
2023-05-07T20:56:28.545Z,73.55
2023-05-07T20:59:16.658Z,73.63
2023-05-07T21:02:04.215Z,73.92
2023-05-07T21:04:52.764Z,74.63
2023-05-07T21:07:40.219Z,74.81
2023-05-07T21:10:27.828Z,74.64
2023-05-07T21:13:16.154Z,75.00
2023-05-07T21:16:04.056Z,75.42
2023-05-07T21:18:51.523Z,75.56
2023-05-07T21:21:39.185Z,75.97
2023-05-07T21:24:26.830Z,75.63
2023-05-07T21:27:14.512Z,76.43
2023-05-07T21:30:05.109Z,76.89
2023-05-07T21:32:53.382Z,77.21
2023-05-07T21:35:41.022Z,77.46
2023-05-07T21:38:28.528Z,77.61
2023-05-07T21:41:16.000Z,77.78
2023-05-07T21:44:05.015Z,78.12
2023-05-07T21:46:52.451Z,78.16
2023-05-07T21:49:41.833Z,78.60
2023-05-07T21:52:29.355Z,78.47
2023-05-07T21:55:19.133Z,79.31
2023-05-07T21:58:06.576Z,79.51
2023-05-07T22:00:54.315Z,79.34
2023-05-07T22:03:41.926Z,79.82
2023-05-07T22:06:29.449Z,80.39
2023-05-07T22:09:17.350Z,80.38
2023-05-07T22:12:05.345Z,81.12
2023-05-07T22:14:52.775Z,81.63
2023-05-07T22:17:40.346Z,81.06
2023-05-07T22:20:28.044Z,80.75
2023-05-07T22:23:15.854Z,81.70
2023-05-07T22:26:11.875Z,82.68
2023-05-07T22:28:59.214Z,81.88
2023-05-07T22:31:46.632Z,81.49
2023-05-07T22:34:34.142Z,82.00
2023-05-07T22:37:21.545Z,82.56
2023-05-07T22:40:10.033Z,82.58
2023-05-07T22:42:57.673Z,82.67
2023-05-07T22:45:45.196Z,83.33
2023-05-07T22:48:35.688Z,83.61
2023-05-07T22:51:23.206Z,84.42
2023-05-07T22:54:11.510Z,83.99
2023-05-07T22:57:00.194Z,84.06
2023-05-07T22:59:47.617Z,84.32
2023-05-07T23:02:35.117Z,84.23
2023-05-07T23:05:23.167Z,84.58
2023-05-07T23:08:10.789Z,84.47
2023-05-07T23:10:58.229Z,84.93
2023-05-07T23:13:45.718Z,84.63
2023-05-07T23:16:33.372Z,85.20
2023-05-07T23:19:20.923Z,85.25
2023-05-07T23:22:08.461Z,84.94
2023-05-07T23:24:56.079Z,84.91
2023-05-07T23:27:43.539Z,84.47
2023-05-07T23:30:30.983Z,84.28
2023-05-07T23:33:18.378Z,84.41
2023-05-07T23:36:07.819Z,85.16
2023-05-07T23:38:55.552Z,85.08
2023-05-07T23:41:43.189Z,84.77
2023-05-07T23:44:30.580Z,85.36
2023-05-07T23:47:18.170Z,85.14
2023-05-07T23:50:06.451Z,85.23
2023-05-07T23:52:53.909Z,85.77
2023-05-07T23:55:41.304Z,85.49
2023-05-07T23:58:28.742Z,86.36
